sensor_id;sensor_type;location;lat;lon;timestamp;temperature;humidity
52187;DHT22;38161;53.020;6.598;2022-12-07T00:01:36;3.00;99.90
52187;DHT22;38161;53.020;6.598;2022-12-07T00:04:04;3.00;99.90
52187;DHT22;38161;53.020;6.598;2022-12-07T00:06:36;3.10;99.90
52187;DHT22;38161;53.020;6.598;2022-12-07T00:09:06;3.10;99.90
52187;DHT22;38161;53.020;6.598;2022-12-07T00:11:32;3.20;99.90
52187;DHT22;38161;53.020;6.598;2022-12-07T00:14:00;3.30;99.90
52187;DHT22;38161;53.020;6.598;2022-12-07T00:16:29;3.20;99.90
52187;DHT22;38161;53.020;6.598;2022-12-07T00:18:55;3.20;99.90
52187;DHT22;38161;53.020;6.598;2022-12-07T00:21:24;3.20;99.90
52187;DHT22;38161;53.020;6.598;2022-12-07T00:23:52;3.20;99.90
52187;DHT22;38161;53.020;6.598;2022-12-07T00:26:27;3.20;99.90
52187;DHT22;38161;53.020;6.598;2022-12-07T00:28:55;3.20;99.90
52187;DHT22;38161;53.020;6.598;2022-12-07T00:31:23;3.20;99.90
52187;DHT22;38161;53.020;6.598;2022-12-07T00:33:50;3.20;99.90
52187;DHT22;38161;53.020;6.598;2022-12-07T00:36:18;3.20;99.90
52187;DHT22;38161;53.020;6.598;2022-12-07T00:38:44;3.20;99.90
52187;DHT22;38161;53.020;6.598;2022-12-07T00:41:13;3.20;99.90
52187;DHT22;38161;53.020;6.598;2022-12-07T00:43:39;3.20;99.90
52187;DHT22;38161;53.020;6.598;2022-12-07T00:46:05;3.30;99.90
52187;DHT22;38161;53.020;6.598;2022-12-07T00:48:31;3.10;99.90
52187;DHT22;38161;53.020;6.598;2022-12-07T00:50:58;3.00;99.90
52187;DHT22;38161;53.020;6.598;2022-12-07T00:53:24;3.00;99.90
52187;DHT22;38161;53.020;6.598;2022-12-07T00:55:50;3.00;99.90
52187;DHT22;38161;53.020;6.598;2022-12-07T00:58:16;3.00;99.90
52187;DHT22;38161;53.020;6.598;2022-12-07T01:00:42;3.00;99.90
52187;DHT22;38161;53.020;6.598;2022-12-07T01:03:12;3.00;99.90
52187;DHT22;38161;53.020;6.598;2022-12-07T01:05:38;3.00;99.90
52187;DHT22;38161;53.020;6.598;2022-12-07T01:08:05;3.00;99.90
52187;DHT22;38161;53.020;6.598;2022-12-07T01:10:31;2.90;99.90
52187;DHT22;38161;53.020;6.598;2022-12-07T01:12:57;2.90;99.90
52187;DHT22;38161;53.020;6.598;2022-12-07T01:15:24;3.10;99.90
52187;DHT22;38161;53.020;6.598;2022-12-07T01:17:50;2.90;99.90
52187;DHT22;38161;53.020;6.598;2022-12-07T01:20:15;2.90;99.90
52187;DHT22;38161;53.020;6.598;2022-12-07T01:22:43;2.90;99.90
52187;DHT22;38161;53.020;6.598;2022-12-07T01:25:10;3.20;99.90
52187;DHT22;38161;53.020;6.598;2022-12-07T01:27:36;2.90;99.90
52187;DHT22;38161;53.020;6.598;2022-12-07T01:30:04;3.00;99.90
52187;DHT22;38161;53.020;6.598;2022-12-07T01:32:30;3.00;99.90
52187;DHT22;38161;53.020;6.598;2022-12-07T01:34:56;3.00;99.90
52187;DHT22;38161;53.020;6.598;2022-12-07T01:37:22;3.10;99.90
52187;DHT22;38161;53.020;6.598;2022-12-07T01:39:51;3.30;99.90
52187;DHT22;38161;53.020;6.598;2022-12-07T01:42:18;3.00;99.90
52187;DHT22;38161;53.020;6.598;2022-12-07T01:47:52;3.00;99.90
52187;DHT22;38161;53.020;6.598;2022-12-07T01:50:19;3.00;99.90
52187;DHT22;38161;53.020;6.598;2022-12-07T01:52:48;3.10;99.90
52187;DHT22;38161;53.020;6.598;2022-12-07T01:55:17;3.20;99.90
52187;DHT22;38161;53.020;6.598;2022-12-07T01:57:47;3.10;99.90
52187;DHT22;38161;53.020;6.598;2022-12-07T02:00:14;3.10;99.90
52187;DHT22;38161;53.020;6.598;2022-12-07T02:02:52;3.20;99.90
52187;DHT22;38161;53.020;6.598;2022-12-07T02:05:19;3.10;99.90
52187;DHT22;38161;53.020;6.598;2022-12-07T02:07:47;3.20;99.90
52187;DHT22;38161;53.020;6.598;2022-12-07T02:10:23;3.20;99.90
52187;DHT22;38161;53.020;6.598;2022-12-07T02:13:33;3.20;99.90
52187;DHT22;38161;53.020;6.598;2022-12-07T02:19:20;3.10;99.90
52187;DHT22;38161;53.020;6.598;2022-12-07T02:21:53;3.00;99.90
52187;DHT22;38161;53.020;6.598;2022-12-07T02:30:10;3.00;99.90
52187;DHT22;38161;53.020;6.598;2022-12-07T02:32:56;2.90;99.90
52187;DHT22;38161;53.020;6.598;2022-12-07T02:35:39;2.90;99.90
52187;DHT22;38161;53.020;6.598;2022-12-07T02:38:30;3.00;99.90
52187;DHT22;38161;53.020;6.598;2022-12-07T02:41:31;3.00;99.90
52187;DHT22;38161;53.020;6.598;2022-12-07T02:44:02;3.10;99.90
52187;DHT22;38161;53.020;6.598;2022-12-07T02:46:42;3.00;99.90
52187;DHT22;38161;53.020;6.598;2022-12-07T02:49:09;3.10;99.90
52187;DHT22;38161;53.020;6.598;2022-12-07T02:51:40;3.00;99.90
52187;DHT22;38161;53.020;6.598;2022-12-07T02:54:14;3.00;99.90
52187;DHT22;38161;53.020;6.598;2022-12-07T03:10:22;3.40;99.90
52187;DHT22;38161;53.020;6.598;2022-12-07T03:18:38;3.20;99.90
52187;DHT22;38161;53.020;6.598;2022-12-07T03:21:08;3.10;99.90
52187;DHT22;38161;53.020;6.598;2022-12-07T03:23:37;3.10;99.90
52187;DHT22;38161;53.020;6.598;2022-12-07T03:26:05;3.10;99.90
52187;DHT22;38161;53.020;6.598;2022-12-07T03:28:40;3.10;99.90
52187;DHT22;38161;53.020;6.598;2022-12-07T03:31:18;3.00;99.90
52187;DHT22;38161;53.020;6.598;2022-12-07T03:36:34;3.00;99.90
52187;DHT22;38161;53.020;6.598;2022-12-07T03:41:50;3.00;99.90
52187;DHT22;38161;53.020;6.598;2022-12-07T03:44:17;3.00;99.90
52187;DHT22;38161;53.020;6.598;2022-12-07T03:52:45;3.10;99.90
52187;DHT22;38161;53.020;6.598;2022-12-07T03:55:25;3.10;99.90
52187;DHT22;38161;53.020;6.598;2022-12-07T03:57:55;3.10;99.90
52187;DHT22;38161;53.020;6.598;2022-12-07T04:00:22;3.10;99.90
52187;DHT22;38161;53.020;6.598;2022-12-07T04:02:48;3.40;99.90
52187;DHT22;38161;53.020;6.598;2022-12-07T04:05:16;3.10;99.90
52187;DHT22;38161;53.020;6.598;2022-12-07T04:07:42;3.20;99.90
52187;DHT22;38161;53.020;6.598;2022-12-07T04:10:08;3.10;99.90
52187;DHT22;38161;53.020;6.598;2022-12-07T04:12:33;3.00;99.90
52187;DHT22;38161;53.020;6.598;2022-12-07T04:14:59;3.10;99.90
52187;DHT22;38161;53.020;6.598;2022-12-07T04:17:25;3.00;99.90
52187;DHT22;38161;53.020;6.598;2022-12-07T04:19:50;3.00;99.90
52187;DHT22;38161;53.020;6.598;2022-12-07T04:22:16;3.00;99.90
52187;DHT22;38161;53.020;6.598;2022-12-07T04:24:42;2.90;99.90
52187;DHT22;38161;53.020;6.598;2022-12-07T04:27:07;2.90;99.90
52187;DHT22;38161;53.020;6.598;2022-12-07T04:29:33;2.90;99.90
52187;DHT22;38161;53.020;6.598;2022-12-07T04:31:59;2.90;99.90
52187;DHT22;38161;53.020;6.598;2022-12-07T04:34:25;2.90;99.90
52187;DHT22;38161;53.020;6.598;2022-12-07T04:36:50;2.90;99.90
52187;DHT22;38161;53.020;6.598;2022-12-07T04:39:26;2.90;99.90
52187;DHT22;38161;53.020;6.598;2022-12-07T04:41:53;2.90;99.90
52187;DHT22;38161;53.020;6.598;2022-12-07T04:44:19;2.90;99.90
52187;DHT22;38161;53.020;6.598;2022-12-07T04:46:46;2.90;99.90
52187;DHT22;38161;53.020;6.598;2022-12-07T04:49:12;2.90;99.90
52187;DHT22;38161;53.020;6.598;2022-12-07T04:51:39;2.90;99.90
52187;DHT22;38161;53.020;6.598;2022-12-07T04:54:05;3.00;99.90
52187;DHT22;38161;53.020;6.598;2022-12-07T04:56:31;3.10;99.90
52187;DHT22;38161;53.020;6.598;2022-12-07T04:58:57;3.00;99.90
52187;DHT22;38161;53.020;6.598;2022-12-07T05:01:23;3.10;99.90
52187;DHT22;38161;53.020;6.598;2022-12-07T05:03:49;3.20;99.90
52187;DHT22;38161;53.020;6.598;2022-12-07T05:06:15;3.10;99.90
52187;DHT22;38161;53.020;6.598;2022-12-07T05:08:41;3.20;99.90
52187;DHT22;38161;53.020;6.598;2022-12-07T05:11:07;3.20;99.90
52187;DHT22;38161;53.020;6.598;2022-12-07T05:13:34;3.20;99.90
52187;DHT22;38161;53.020;6.598;2022-12-07T05:15:59;3.20;99.90
52187;DHT22;38161;53.020;6.598;2022-12-07T05:18:25;3.20;99.90
52187;DHT22;38161;53.020;6.598;2022-12-07T05:20:51;3.20;99.90
52187;DHT22;38161;53.020;6.598;2022-12-07T05:23:17;3.20;99.90
52187;DHT22;38161;53.020;6.598;2022-12-07T05:25:43;3.20;99.90
52187;DHT22;38161;53.020;6.598;2022-12-07T05:28:09;3.10;99.90
52187;DHT22;38161;53.020;6.598;2022-12-07T05:30:35;3.60;99.90
52187;DHT22;38161;53.020;6.598;2022-12-07T05:33:01;3.10;99.90
52187;DHT22;38161;53.020;6.598;2022-12-07T05:35:28;3.00;99.90
52187;DHT22;38161;53.020;6.598;2022-12-07T05:37:54;3.00;99.90
52187;DHT22;38161;53.020;6.598;2022-12-07T05:40:20;2.90;99.90
52187;DHT22;38161;53.020;6.598;2022-12-07T05:42:46;2.90;99.90
52187;DHT22;38161;53.020;6.598;2022-12-07T05:45:11;2.80;99.90
52187;DHT22;38161;53.020;6.598;2022-12-07T05:47:37;2.80;99.90
52187;DHT22;38161;53.020;6.598;2022-12-07T05:50:04;2.70;99.90
52187;DHT22;38161;53.020;6.598;2022-12-07T05:52:31;2.70;99.90
52187;DHT22;38161;53.020;6.598;2022-12-07T05:54:56;2.70;99.90
52187;DHT22;38161;53.020;6.598;2022-12-07T05:57:22;2.70;99.90
52187;DHT22;38161;53.020;6.598;2022-12-07T05:59:48;2.60;99.90
52187;DHT22;38161;53.020;6.598;2022-12-07T06:02:15;2.60;99.90
52187;DHT22;38161;53.020;6.598;2022-12-07T06:04:45;2.60;99.90
52187;DHT22;38161;53.020;6.598;2022-12-07T06:07:13;2.60;99.90
52187;DHT22;38161;53.020;6.598;2022-12-07T06:09:39;2.60;99.90
52187;DHT22;38161;53.020;6.598;2022-12-07T06:12:06;2.50;99.90
52187;DHT22;38161;53.020;6.598;2022-12-07T06:14:51;2.60;99.90
52187;DHT22;38161;53.020;6.598;2022-12-07T06:17:16;2.50;99.90
52187;DHT22;38161;53.020;6.598;2022-12-07T06:19:42;2.50;99.90
52187;DHT22;38161;53.020;6.598;2022-12-07T06:22:09;2.50;99.90
52187;DHT22;38161;53.020;6.598;2022-12-07T06:24:36;2.40;99.90
52187;DHT22;38161;53.020;6.598;2022-12-07T06:27:01;2.50;99.90
52187;DHT22;38161;53.020;6.598;2022-12-07T06:29:27;2.40;99.90
52187;DHT22;38161;53.020;6.598;2022-12-07T06:31:53;2.40;99.90
52187;DHT22;38161;53.020;6.598;2022-12-07T06:34:21;2.40;99.90
52187;DHT22;38161;53.020;6.598;2022-12-07T06:36:49;2.40;99.90
52187;DHT22;38161;53.020;6.598;2022-12-07T06:39:18;2.40;99.90
52187;DHT22;38161;53.020;6.598;2022-12-07T06:41:44;2.40;99.90
52187;DHT22;38161;53.020;6.598;2022-12-07T06:44:10;2.60;99.90
52187;DHT22;38161;53.020;6.598;2022-12-07T06:46:35;2.50;99.90
52187;DHT22;38161;53.020;6.598;2022-12-07T06:49:02;2.80;99.90
52187;DHT22;38161;53.020;6.598;2022-12-07T06:51:27;2.50;99.90
52187;DHT22;38161;53.020;6.598;2022-12-07T06:53:53;2.60;99.90
52187;DHT22;38161;53.020;6.598;2022-12-07T06:56:19;2.60;99.90
52187;DHT22;38161;53.020;6.598;2022-12-07T06:58:45;2.60;99.90
52187;DHT22;38161;53.020;6.598;2022-12-07T07:01:12;2.60;99.90
52187;DHT22;38161;53.020;6.598;2022-12-07T07:03:38;2.60;99.90
52187;DHT22;38161;53.020;6.598;2022-12-07T07:06:04;2.60;99.90
52187;DHT22;38161;53.020;6.598;2022-12-07T07:08:30;2.60;99.90
52187;DHT22;38161;53.020;6.598;2022-12-07T07:10:56;2.70;99.90
52187;DHT22;38161;53.020;6.598;2022-12-07T07:13:21;2.60;99.90
52187;DHT22;38161;53.020;6.598;2022-12-07T07:15:47;2.60;99.90
52187;DHT22;38161;53.020;6.598;2022-12-07T07:18:13;2.50;99.90
52187;DHT22;38161;53.020;6.598;2022-12-07T07:20:38;2.50;99.90
52187;DHT22;38161;53.020;6.598;2022-12-07T07:23:04;2.40;99.90
52187;DHT22;38161;53.020;6.598;2022-12-07T07:25:31;2.40;99.90
52187;DHT22;38161;53.020;6.598;2022-12-07T07:27:57;2.40;99.90
52187;DHT22;38161;53.020;6.598;2022-12-07T07:30:23;2.40;99.90
52187;DHT22;38161;53.020;6.598;2022-12-07T07:32:49;2.40;99.90
52187;DHT22;38161;53.020;6.598;2022-12-07T07:35:15;2.40;99.90
52187;DHT22;38161;53.020;6.598;2022-12-07T07:37:41;2.50;99.90
52187;DHT22;38161;53.020;6.598;2022-12-07T07:40:08;2.50;99.90
52187;DHT22;38161;53.020;6.598;2022-12-07T07:42:34;2.50;99.90
52187;DHT22;38161;53.020;6.598;2022-12-07T07:44:59;2.60;99.90
52187;DHT22;38161;53.020;6.598;2022-12-07T07:47:25;2.60;99.90
52187;DHT22;38161;53.020;6.598;2022-12-07T07:49:51;2.60;99.90
52187;DHT22;38161;53.020;6.598;2022-12-07T07:52:16;2.60;99.90
52187;DHT22;38161;53.020;6.598;2022-12-07T07:54:42;2.50;99.90
52187;DHT22;38161;53.020;6.598;2022-12-07T07:57:08;2.50;99.90
52187;DHT22;38161;53.020;6.598;2022-12-07T07:59:33;2.50;99.90
52187;DHT22;38161;53.020;6.598;2022-12-07T08:01:59;2.40;99.90
52187;DHT22;38161;53.020;6.598;2022-12-07T08:04:25;2.40;99.90
52187;DHT22;38161;53.020;6.598;2022-12-07T08:06:51;2.40;99.90
52187;DHT22;38161;53.020;6.598;2022-12-07T08:09:17;2.30;99.90
52187;DHT22;38161;53.020;6.598;2022-12-07T08:11:43;2.30;99.90
52187;DHT22;38161;53.020;6.598;2022-12-07T08:14:10;2.30;99.90
52187;DHT22;38161;53.020;6.598;2022-12-07T08:16:37;2.30;99.90
52187;DHT22;38161;53.020;6.598;2022-12-07T08:19:04;2.30;99.90
52187;DHT22;38161;53.020;6.598;2022-12-07T08:21:30;2.30;99.90
52187;DHT22;38161;53.020;6.598;2022-12-07T08:23:57;2.30;99.90
52187;DHT22;38161;53.020;6.598;2022-12-07T08:26:22;2.30;99.90
52187;DHT22;38161;53.020;6.598;2022-12-07T08:28:48;2.30;99.90
52187;DHT22;38161;53.020;6.598;2022-12-07T08:31:16;2.30;99.90
52187;DHT22;38161;53.020;6.598;2022-12-07T08:33:44;2.70;99.90
52187;DHT22;38161;53.020;6.598;2022-12-07T08:36:12;2.50;99.90
52187;DHT22;38161;53.020;6.598;2022-12-07T08:38:39;2.60;99.90
52187;DHT22;38161;53.020;6.598;2022-12-07T08:41:06;2.60;99.90
52187;DHT22;38161;53.020;6.598;2022-12-07T08:43:32;2.70;99.90
52187;DHT22;38161;53.020;6.598;2022-12-07T08:46:11;2.80;99.90
52187;DHT22;38161;53.020;6.598;2022-12-07T08:48:52;2.80;99.90
52187;DHT22;38161;53.020;6.598;2022-12-07T08:51:19;2.80;99.90
52187;DHT22;38161;53.020;6.598;2022-12-07T08:53:46;2.80;99.90
52187;DHT22;38161;53.020;6.598;2022-12-07T08:56:12;3.30;99.90
52187;DHT22;38161;53.020;6.598;2022-12-07T08:58:38;2.80;99.90
52187;DHT22;38161;53.020;6.598;2022-12-07T09:01:05;2.80;99.90
52187;DHT22;38161;53.020;6.598;2022-12-07T09:03:31;2.80;99.90
52187;DHT22;38161;53.020;6.598;2022-12-07T09:05:58;2.80;99.90
52187;DHT22;38161;53.020;6.598;2022-12-07T09:08:29;2.80;99.90
52187;DHT22;38161;53.020;6.598;2022-12-07T09:10:56;2.80;99.90
52187;DHT22;38161;53.020;6.598;2022-12-07T09:13:22;2.80;99.90
52187;DHT22;38161;53.020;6.598;2022-12-07T09:15:48;2.90;99.90
52187;DHT22;38161;53.020;6.598;2022-12-07T09:18:14;2.90;99.90
52187;DHT22;38161;53.020;6.598;2022-12-07T09:20:39;2.90;99.90
52187;DHT22;38161;53.020;6.598;2022-12-07T09:23:06;3.20;99.90
52187;DHT22;38161;53.020;6.598;2022-12-07T09:25:32;3.10;99.90
52187;DHT22;38161;53.020;6.598;2022-12-07T09:27:58;2.90;99.90
52187;DHT22;38161;53.020;6.598;2022-12-07T09:30:25;2.90;99.90
52187;DHT22;38161;53.020;6.598;2022-12-07T09:32:53;3.00;99.90
52187;DHT22;38161;53.020;6.598;2022-12-07T09:35:19;3.20;99.90
52187;DHT22;38161;53.020;6.598;2022-12-07T09:37:46;3.20;99.90
52187;DHT22;38161;53.020;6.598;2022-12-07T09:40:12;3.50;99.90
52187;DHT22;38161;53.020;6.598;2022-12-07T09:42:39;3.40;99.90
52187;DHT22;38161;53.020;6.598;2022-12-07T09:45:07;3.50;99.90
52187;DHT22;38161;53.020;6.598;2022-12-07T09:47:37;3.50;99.90
52187;DHT22;38161;53.020;6.598;2022-12-07T09:50:18;3.50;99.90
52187;DHT22;38161;53.020;6.598;2022-12-07T09:52:45;3.60;99.90
52187;DHT22;38161;53.020;6.598;2022-12-07T09:55:15;3.60;99.90
52187;DHT22;38161;53.020;6.598;2022-12-07T09:57:43;3.60;99.90
52187;DHT22;38161;53.020;6.598;2022-12-07T10:00:17;3.50;99.90
52187;DHT22;38161;53.020;6.598;2022-12-07T10:02:48;3.60;99.90
52187;DHT22;38161;53.020;6.598;2022-12-07T10:05:18;3.60;99.90
52187;DHT22;38161;53.020;6.598;2022-12-07T10:07:45;3.50;99.90
52187;DHT22;38161;53.020;6.598;2022-12-07T10:10:17;3.60;99.90
52187;DHT22;38161;53.020;6.598;2022-12-07T10:12:58;3.50;99.90
52187;DHT22;38161;53.020;6.598;2022-12-07T10:15:42;3.50;99.90
52187;DHT22;38161;53.020;6.598;2022-12-07T10:18:36;3.60;99.90
52187;DHT22;38161;53.020;6.598;2022-12-07T10:23:41;3.70;99.90
52187;DHT22;38161;53.020;6.598;2022-12-07T10:26:30;3.70;99.90
52187;DHT22;38161;53.020;6.598;2022-12-07T10:28:59;3.70;99.90
52187;DHT22;38161;53.020;6.598;2022-12-07T10:31:26;3.80;99.90
52187;DHT22;38161;53.020;6.598;2022-12-07T10:33:57;4.00;99.90
52187;DHT22;38161;53.020;6.598;2022-12-07T10:36:36;4.40;99.90
52187;DHT22;38161;53.020;6.598;2022-12-07T10:39:12;4.60;99.90
52187;DHT22;38161;53.020;6.598;2022-12-07T10:42:01;4.50;99.90
52187;DHT22;38161;53.020;6.598;2022-12-07T10:44:32;4.50;99.90
52187;DHT22;38161;53.020;6.598;2022-12-07T10:55:19;4.60;99.90
52187;DHT22;38161;53.020;6.598;2022-12-07T11:00:55;5.10;99.90
52187;DHT22;38161;53.020;6.598;2022-12-07T11:09:34;6.90;99.90
52187;DHT22;38161;53.020;6.598;2022-12-07T11:17:56;6.70;99.90
52187;DHT22;38161;53.020;6.598;2022-12-07T11:20:33;6.50;99.90
52187;DHT22;38161;53.020;6.598;2022-12-07T11:34:37;5.70;99.90
52187;DHT22;38161;53.020;6.598;2022-12-07T11:37:10;5.80;99.90
52187;DHT22;38161;53.020;6.598;2022-12-07T11:39:58;6.00;99.90
52187;DHT22;38161;53.020;6.598;2022-12-07T11:42:26;6.10;99.90
52187;DHT22;38161;53.020;6.598;2022-12-07T11:47:47;5.80;99.90
52187;DHT22;38161;53.020;6.598;2022-12-07T11:53:10;5.70;99.90
52187;DHT22;38161;53.020;6.598;2022-12-07T11:55:59;5.70;99.90
52187;DHT22;38161;53.020;6.598;2022-12-07T12:01:28;5.80;99.90
52187;DHT22;38161;53.020;6.598;2022-12-07T12:04:41;5.90;99.90
52187;DHT22;38161;53.020;6.598;2022-12-07T12:07:19;6.10;99.90
52187;DHT22;38161;53.020;6.598;2022-12-07T12:10:02;6.10;99.90
52187;DHT22;38161;53.020;6.598;2022-12-07T12:12:48;6.10;99.90
52187;DHT22;38161;53.020;6.598;2022-12-07T12:21:13;6.00;99.90
52187;DHT22;38161;53.020;6.598;2022-12-07T12:23:48;6.10;99.90
52187;DHT22;38161;53.020;6.598;2022-12-07T12:26:21;6.10;99.90
52187;DHT22;38161;53.020;6.598;2022-12-07T12:34:01;6.00;99.90
52187;DHT22;38161;53.020;6.598;2022-12-07T12:36:44;6.10;99.90
52187;DHT22;38161;53.020;6.598;2022-12-07T12:39:19;5.90;99.90
52187;DHT22;38161;53.020;6.598;2022-12-07T12:51:55;5.60;99.90
52187;DHT22;38161;53.020;6.598;2022-12-07T12:54:33;5.50;99.90
52187;DHT22;38161;53.020;6.598;2022-12-07T12:57:19;5.50;99.90
52187;DHT22;38161;53.020;6.598;2022-12-07T13:13:03;5.10;99.90
52187;DHT22;38161;53.020;6.598;2022-12-07T13:21:42;4.80;99.90
52187;DHT22;38161;53.020;6.598;2022-12-07T13:31:36;4.70;99.90
52187;DHT22;38161;53.020;6.598;2022-12-07T13:34:05;4.70;99.90
52187;DHT22;38161;53.020;6.598;2022-12-07T13:36:38;4.60;99.90
52187;DHT22;38161;53.020;6.598;2022-12-07T13:39:24;4.60;99.90
52187;DHT22;38161;53.020;6.598;2022-12-07T13:41:56;4.50;99.90
52187;DHT22;38161;53.020;6.598;2022-12-07T13:44:28;4.50;99.90
52187;DHT22;38161;53.020;6.598;2022-12-07T13:47:17;4.40;99.90
52187;DHT22;38161;53.020;6.598;2022-12-07T13:49:48;4.40;99.90
52187;DHT22;38161;53.020;6.598;2022-12-07T13:52:21;4.40;99.90
52187;DHT22;38161;53.020;6.598;2022-12-07T13:57:33;4.30;99.90
52187;DHT22;38161;53.020;6.598;2022-12-07T14:00:04;4.30;99.90
52187;DHT22;38161;53.020;6.598;2022-12-07T14:02:34;4.30;99.90
52187;DHT22;38161;53.020;6.598;2022-12-07T14:05:14;4.20;99.90
52187;DHT22;38161;53.020;6.598;2022-12-07T14:08:00;4.20;99.90
52187;DHT22;38161;53.020;6.598;2022-12-07T14:10:28;4.20;99.90
52187;DHT22;38161;53.020;6.598;2022-12-07T14:12:55;4.10;99.90
52187;DHT22;38161;53.020;6.598;2022-12-07T14:15:22;4.10;99.90
52187;DHT22;38161;53.020;6.598;2022-12-07T14:17:53;4.10;99.90
52187;DHT22;38161;53.020;6.598;2022-12-07T14:20:36;4.00;99.90
52187;DHT22;38161;53.020;6.598;2022-12-07T14:23:03;4.00;99.90
52187;DHT22;38161;53.020;6.598;2022-12-07T14:25:49;4.00;99.90
52187;DHT22;38161;53.020;6.598;2022-12-07T14:28:29;4.00;99.90
52187;DHT22;38161;53.020;6.598;2022-12-07T14:30:56;4.00;99.90
52187;DHT22;38161;53.020;6.598;2022-12-07T14:33:22;4.00;99.90
52187;DHT22;38161;53.020;6.598;2022-12-07T14:35:49;3.90;99.90
52187;DHT22;38161;53.020;6.598;2022-12-07T14:38:15;3.90;99.90
52187;DHT22;38161;53.020;6.598;2022-12-07T14:40:41;4.00;99.90
52187;DHT22;38161;53.020;6.598;2022-12-07T14:43:12;3.90;99.90
52187;DHT22;38161;53.020;6.598;2022-12-07T14:45:39;3.80;99.90
52187;DHT22;38161;53.020;6.598;2022-12-07T14:48:07;3.80;99.90
52187;DHT22;38161;53.020;6.598;2022-12-07T14:50:37;3.80;99.90
52187;DHT22;38161;53.020;6.598;2022-12-07T14:53:14;3.90;99.90
52187;DHT22;38161;53.020;6.598;2022-12-07T14:55:40;3.90;99.90
52187;DHT22;38161;53.020;6.598;2022-12-07T14:58:12;3.90;99.90
52187;DHT22;38161;53.020;6.598;2022-12-07T15:00:38;3.90;99.90
52187;DHT22;38161;53.020;6.598;2022-12-07T15:03:04;3.90;99.90
52187;DHT22;38161;53.020;6.598;2022-12-07T15:05:29;4.00;99.90
52187;DHT22;38161;53.020;6.598;2022-12-07T15:07:55;3.90;99.90
52187;DHT22;38161;53.020;6.598;2022-12-07T15:10:24;3.90;99.90
52187;DHT22;38161;53.020;6.598;2022-12-07T15:12:54;3.90;99.90
52187;DHT22;38161;53.020;6.598;2022-12-07T15:15:20;3.90;99.90
52187;DHT22;38161;53.020;6.598;2022-12-07T15:17:46;3.90;99.90
52187;DHT22;38161;53.020;6.598;2022-12-07T15:20:15;3.90;99.90
52187;DHT22;38161;53.020;6.598;2022-12-07T15:22:42;4.00;99.90
52187;DHT22;38161;53.020;6.598;2022-12-07T15:25:12;3.80;99.90
52187;DHT22;38161;53.020;6.598;2022-12-07T15:27:38;3.80;99.90
52187;DHT22;38161;53.020;6.598;2022-12-07T15:30:04;3.80;99.90
52187;DHT22;38161;53.020;6.598;2022-12-07T15:32:30;3.80;99.90
52187;DHT22;38161;53.020;6.598;2022-12-07T15:34:55;3.70;99.90
52187;DHT22;38161;53.020;6.598;2022-12-07T15:37:21;3.70;99.90
52187;DHT22;38161;53.020;6.598;2022-12-07T15:39:47;3.70;99.90
52187;DHT22;38161;53.020;6.598;2022-12-07T15:42:12;3.60;99.90
52187;DHT22;38161;53.020;6.598;2022-12-07T15:44:38;3.60;99.90
52187;DHT22;38161;53.020;6.598;2022-12-07T15:47:22;3.50;99.90
52187;DHT22;38161;53.020;6.598;2022-12-07T15:49:48;3.50;99.90
52187;DHT22;38161;53.020;6.598;2022-12-07T15:52:14;3.50;99.90
52187;DHT22;38161;53.020;6.598;2022-12-07T15:54:41;3.40;99.90
52187;DHT22;38161;53.020;6.598;2022-12-07T15:57:07;3.40;99.90
52187;DHT22;38161;53.020;6.598;2022-12-07T15:59:32;3.40;99.90
52187;DHT22;38161;53.020;6.598;2022-12-07T16:01:58;3.40;99.90
52187;DHT22;38161;53.020;6.598;2022-12-07T16:04:24;3.40;99.90
52187;DHT22;38161;53.020;6.598;2022-12-07T16:06:49;3.40;99.90
52187;DHT22;38161;53.020;6.598;2022-12-07T16:09:16;3.30;99.90
52187;DHT22;38161;53.020;6.598;2022-12-07T16:11:42;3.30;99.90
52187;DHT22;38161;53.020;6.598;2022-12-07T16:14:07;3.30;99.90
52187;DHT22;38161;53.020;6.598;2022-12-07T16:16:33;3.30;99.90
52187;DHT22;38161;53.020;6.598;2022-12-07T16:18:59;3.30;99.90
52187;DHT22;38161;53.020;6.598;2022-12-07T16:21:24;3.30;99.90
52187;DHT22;38161;53.020;6.598;2022-12-07T16:23:50;3.30;99.90
52187;DHT22;38161;53.020;6.598;2022-12-07T16:26:18;3.30;99.90
52187;DHT22;38161;53.020;6.598;2022-12-07T16:28:45;3.30;99.90
52187;DHT22;38161;53.020;6.598;2022-12-07T16:31:13;3.30;99.90
52187;DHT22;38161;53.020;6.598;2022-12-07T16:33:41;3.30;99.90
52187;DHT22;38161;53.020;6.598;2022-12-07T16:36:08;3.30;99.90
52187;DHT22;38161;53.020;6.598;2022-12-07T16:38:35;3.30;99.90
52187;DHT22;38161;53.020;6.598;2022-12-07T16:41:01;3.30;99.90
52187;DHT22;38161;53.020;6.598;2022-12-07T16:43:27;3.30;99.90
52187;DHT22;38161;53.020;6.598;2022-12-07T16:45:53;3.30;99.90
52187;DHT22;38161;53.020;6.598;2022-12-07T16:48:19;3.20;99.90
52187;DHT22;38161;53.020;6.598;2022-12-07T16:50:45;3.20;99.90
52187;DHT22;38161;53.020;6.598;2022-12-07T16:53:12;3.30;99.90
52187;DHT22;38161;53.020;6.598;2022-12-07T16:55:40;3.20;99.90
52187;DHT22;38161;53.020;6.598;2022-12-07T16:58:07;3.20;99.90
52187;DHT22;38161;53.020;6.598;2022-12-07T17:00:32;3.20;99.90
52187;DHT22;38161;53.020;6.598;2022-12-07T17:02:58;3.30;99.90
52187;DHT22;38161;53.020;6.598;2022-12-07T17:05:24;3.50;99.90
52187;DHT22;38161;53.020;6.598;2022-12-07T17:07:52;3.30;99.90
52187;DHT22;38161;53.020;6.598;2022-12-07T17:10:18;3.30;99.90
52187;DHT22;38161;53.020;6.598;2022-12-07T17:12:43;3.30;99.90
52187;DHT22;38161;53.020;6.598;2022-12-07T17:15:09;3.30;99.90
52187;DHT22;38161;53.020;6.598;2022-12-07T17:17:54;3.30;99.90
52187;DHT22;38161;53.020;6.598;2022-12-07T17:20:22;3.30;99.90
52187;DHT22;38161;53.020;6.598;2022-12-07T17:22:48;3.20;99.90
52187;DHT22;38161;53.020;6.598;2022-12-07T17:25:15;3.20;99.90
52187;DHT22;38161;53.020;6.598;2022-12-07T17:27:41;3.20;99.90
52187;DHT22;38161;53.020;6.598;2022-12-07T17:30:08;3.20;99.90
52187;DHT22;38161;53.020;6.598;2022-12-07T17:32:34;3.20;99.90
52187;DHT22;38161;53.020;6.598;2022-12-07T17:34:59;3.50;99.90
52187;DHT22;38161;53.020;6.598;2022-12-07T17:37:26;3.60;99.90
52187;DHT22;38161;53.020;6.598;2022-12-07T17:39:52;3.20;99.90
52187;DHT22;38161;53.020;6.598;2022-12-07T17:42:23;3.20;99.90
52187;DHT22;38161;53.020;6.598;2022-12-07T17:45:04;3.20;99.90
52187;DHT22;38161;53.020;6.598;2022-12-07T17:47:30;3.20;99.90
52187;DHT22;38161;53.020;6.598;2022-12-07T17:49:56;3.20;99.90
52187;DHT22;38161;53.020;6.598;2022-12-07T17:52:22;3.20;99.90
52187;DHT22;38161;53.020;6.598;2022-12-07T17:55:06;3.20;99.90
52187;DHT22;38161;53.020;6.598;2022-12-07T17:57:32;3.10;99.90
52187;DHT22;38161;53.020;6.598;2022-12-07T17:59:58;3.10;99.90
52187;DHT22;38161;53.020;6.598;2022-12-07T18:02:24;3.10;99.90
52187;DHT22;38161;53.020;6.598;2022-12-07T18:04:49;3.20;99.90
52187;DHT22;38161;53.020;6.598;2022-12-07T18:07:15;3.20;99.90
52187;DHT22;38161;53.020;6.598;2022-12-07T18:09:41;3.10;99.90
52187;DHT22;38161;53.020;6.598;2022-12-07T18:12:07;3.20;99.90
52187;DHT22;38161;53.020;6.598;2022-12-07T18:14:33;3.10;99.90
52187;DHT22;38161;53.020;6.598;2022-12-07T18:16:59;3.10;99.90